sensor_id;sensor_type;location;lat;lon;timestamp;pressure;altitude;pressure_sealevel;temperature;humidity
48606;BME280;8482;54.396;18.590;2023-05-08T00:01:58;102872.16;;;7.30;62.78
48606;BME280;8482;54.396;18.590;2023-05-08T00:04:24;102875.03;;;7.23;62.64
48606;BME280;8482;54.396;18.590;2023-05-08T00:06:50;102874.34;;;7.16;62.56
48606;BME280;8482;54.396;18.590;2023-05-08T00:09:20;102876.22;;;7.12;63.70
48606;BME280;8482;54.396;18.590;2023-05-08T00:11:46;102872.84;;;7.07;63.62
48606;BME280;8482;54.396;18.590;2023-05-08T00:14:12;102880.84;;;7.05;63.34
48606;BME280;8482;54.396;18.590;2023-05-08T00:16:38;102875.69;;;7.01;64.37
48606;BME280;8482;54.396;18.590;2023-05-08T00:19:03;102878.44;;;6.96;64.57
48606;BME280;8482;54.396;18.590;2023-05-08T00:21:29;102881.13;;;6.95;64.33
48606;BME280;8482;54.396;18.590;2023-05-08T00:23:55;102883.00;;;6.91;63.83
48606;BME280;8482;54.396;18.590;2023-05-08T00:26:21;102876.91;;;6.89;64.32
48606;BME280;8482;54.396;18.590;2023-05-08T00:28:47;102887.59;;;6.84;64.05
48606;BME280;8482;54.396;18.590;2023-05-08T00:31:13;102875.41;;;6.80;64.73
48606;BME280;8482;54.396;18.590;2023-05-08T00:33:39;102879.91;;;6.77;63.97
48606;BME280;8482;54.396;18.590;2023-05-08T00:36:06;102882.63;;;6.73;64.44
48606;BME280;8482;54.396;18.590;2023-05-08T00:38:35;102880.06;;;6.70;64.77
48606;BME280;8482;54.396;18.590;2023-05-08T00:41:02;102878.44;;;6.66;64.85
48606;BME280;8482;54.396;18.590;2023-05-08T00:43:28;102883.72;;;6.66;65.64
48606;BME280;8482;54.396;18.590;2023-05-08T00:45:56;102884.63;;;6.65;65.75
48606;BME280;8482;54.396;18.590;2023-05-08T00:48:24;102888.25;;;6.61;66.29
48606;BME280;8482;54.396;18.590;2023-05-08T00:50:53;102882.22;;;6.56;66.20
48606;BME280;8482;54.396;18.590;2023-05-08T00:53:22;102879.72;;;6.51;65.83
48606;BME280;8482;54.396;18.590;2023-05-08T00:55:50;102889.50;;;6.48;66.86
48606;BME280;8482;54.396;18.590;2023-05-08T00:58:16;102888.72;;;6.44;67.28
48606;BME280;8482;54.396;18.590;2023-05-08T01:00:44;102891.22;;;6.49;67.56
48606;BME280;8482;54.396;18.590;2023-05-08T01:03:12;102892.19;;;6.44;67.62
48606;BME280;8482;54.396;18.590;2023-05-08T01:05:39;102888.72;;;6.44;67.07
48606;BME280;8482;54.396;18.590;2023-05-08T01:08:06;102883.56;;;6.39;66.99
48606;BME280;8482;54.396;18.590;2023-05-08T01:17:22;102892.59;;;6.29;66.54
48606;BME280;8482;54.396;18.590;2023-05-08T01:26:46;102902.63;;;6.16;67.82
48606;BME280;8482;54.396;18.590;2023-05-08T01:32:30;102913.94;;;6.20;68.86
48606;BME280;8482;54.396;18.590;2023-05-08T01:35:20;102907.84;;;6.18;68.56
48606;BME280;8482;54.396;18.590;2023-05-08T01:38:09;102907.00;;;6.17;68.41
48606;BME280;8482;54.396;18.590;2023-05-08T01:41:05;102907.06;;;6.14;68.79
48606;BME280;8482;54.396;18.590;2023-05-08T01:43:56;102914.97;;;6.14;68.70
48606;BME280;8482;54.396;18.590;2023-05-08T01:46:27;102906.22;;;6.12;69.17
48606;BME280;8482;54.396;18.590;2023-05-08T01:49:25;102908.09;;;6.08;68.44
48606;BME280;8482;54.396;18.590;2023-05-08T01:52:17;102910.84;;;6.04;68.06
48606;BME280;8482;54.396;18.590;2023-05-08T01:55:03;102912.59;;;6.03;69.15
48606;BME280;8482;54.396;18.590;2023-05-08T01:57:36;102905.59;;;6.02;68.75
48606;BME280;8482;54.396;18.590;2023-05-08T02:00:06;102906.47;;;6.03;68.10
48606;BME280;8482;54.396;18.590;2023-05-08T02:02:34;102917.91;;;6.02;68.14
48606;BME280;8482;54.396;18.590;2023-05-08T02:05:04;102921.47;;;5.99;68.19
48606;BME280;8482;54.396;18.590;2023-05-08T02:07:33;102912.84;;;5.92;67.99
48606;BME280;8482;54.396;18.590;2023-05-08T02:10:04;102915.50;;;5.91;69.38
48606;BME280;8482;54.396;18.590;2023-05-08T02:12:31;102915.44;;;5.94;68.57
48606;BME280;8482;54.396;18.590;2023-05-08T02:15:00;102915.50;;;5.91;68.85
48606;BME280;8482;54.396;18.590;2023-05-08T02:17:29;102918.25;;;5.86;68.93
48606;BME280;8482;54.396;18.590;2023-05-08T02:19:58;102913.88;;;5.85;67.74
48606;BME280;8482;54.396;18.590;2023-05-08T02:22:26;102915.72;;;5.81;67.90
48606;BME280;8482;54.396;18.590;2023-05-08T02:24:55;102918.41;;;5.80;68.50
48606;BME280;8482;54.396;18.590;2023-05-08T02:27:27;102914.06;;;5.77;68.95
48606;BME280;8482;54.396;18.590;2023-05-08T02:29:55;102920.22;;;5.76;68.35
48606;BME280;8482;54.396;18.590;2023-05-08T02:32:24;102927.31;;;5.74;68.33
48606;BME280;8482;54.396;18.590;2023-05-08T02:34:53;102918.72;;;5.67;68.29
48606;BME280;8482;54.396;18.590;2023-05-08T02:37:21;102925.78;;;5.65;67.79
48606;BME280;8482;54.396;18.590;2023-05-08T02:39:52;102927.69;;;5.59;67.84
48606;BME280;8482;54.396;18.590;2023-05-08T02:42:21;102922.53;;;5.54;68.64
48606;BME280;8482;54.396;18.590;2023-05-08T02:44:47;102924.28;;;5.53;68.72
48606;BME280;8482;54.396;18.590;2023-05-08T02:47:24;102931.31;;;5.53;68.82
48606;BME280;8482;54.396;18.590;2023-05-08T02:50:03;102926.84;;;5.57;69.10
48606;BME280;8482;54.396;18.590;2023-05-08T02:52:38;102926.91;;;5.53;68.62
48606;BME280;8482;54.396;18.590;2023-05-08T02:58:26;102934.06;;;5.48;68.35
48606;BME280;8482;54.396;18.590;2023-05-08T03:01:06;102943.78;;;5.45;68.00
48606;BME280;8482;54.396;18.590;2023-05-08T03:03:43;102935.03;;;5.43;69.40
48606;BME280;8482;54.396;18.590;2023-05-08T03:06:21;102935.03;;;5.43;69.31
48606;BME280;8482;54.396;18.590;2023-05-08T03:08:50;102943.03;;;5.40;68.62
48606;BME280;8482;54.396;18.590;2023-05-08T03:11:35;102944.81;;;5.36;68.86
48606;BME280;8482;54.396;18.590;2023-05-08T03:14:05;102942.31;;;5.31;67.79
48606;BME280;8482;54.396;18.590;2023-05-08T03:16:37;102944.97;;;5.30;67.80
48606;BME280;8482;54.396;18.590;2023-05-08T03:19:11;102941.56;;;5.26;68.02
48606;BME280;8482;54.396;18.590;2023-05-08T03:21:41;102941.56;;;5.25;68.40
48606;BME280;8482;54.396;18.590;2023-05-08T03:24:09;102944.19;;;5.25;68.44
48606;BME280;8482;54.396;18.590;2023-05-08T03:26:36;102938.94;;;5.25;68.20
48606;BME280;8482;54.396;18.590;2023-05-08T03:29:03;102941.56;;;5.25;68.09
48606;BME280;8482;54.396;18.590;2023-05-08T03:31:31;102938.97;;;5.23;68.82
48606;BME280;8482;54.396;18.590;2023-05-08T03:33:59;102939.81;;;5.25;68.89
48606;BME280;8482;54.396;18.590;2023-05-08T03:36:26;102944.25;;;5.23;68.85
48606;BME280;8482;54.396;18.590;2023-05-08T03:38:53;102942.50;;;5.22;68.71
48606;BME280;8482;54.396;18.590;2023-05-08T03:41:20;102941.56;;;5.25;69.06
48606;BME280;8482;54.396;18.590;2023-05-08T03:43:46;102940.66;;;5.27;70.13
48606;BME280;8482;54.396;18.590;2023-05-08T03:46:13;102937.97;;;5.29;69.28
48606;BME280;8482;54.396;18.590;2023-05-08T03:48:43;102942.28;;;5.33;70.47
48606;BME280;8482;54.396;18.590;2023-05-08T03:51:09;102944.88;;;5.34;70.24
48606;BME280;8482;54.396;18.590;2023-05-08T03:53:35;102945.66;;;5.38;70.25
48606;BME280;8482;54.396;18.590;2023-05-08T03:56:01;102949.97;;;5.42;70.49
48606;BME280;8482;54.396;18.590;2023-05-08T03:59:32;102946.50;;;5.42;69.39
48606;BME280;8482;54.396;18.590;2023-05-08T04:02:46;102940.25;;;5.46;69.74
48606;BME280;8482;54.396;18.590;2023-05-08T04:04:43;102939.16;;;5.55;70.37
48606;BME280;8482;54.396;18.590;2023-05-08T04:10:14;102944.16;;;5.67;69.93
48606;BME280;8482;54.396;18.590;2023-05-08T04:13:21;102935.22;;;5.74;69.93
48606;BME280;8482;54.396;18.590;2023-05-08T04:15:54;102942.13;;;5.78;69.84
48606;BME280;8482;54.396;18.590;2023-05-08T04:18:27;102944.66;;;5.83;70.14
48606;BME280;8482;54.396;18.590;2023-05-08T04:20:55;102946.31;;;5.87;70.04
48606;BME280;8482;54.396;18.590;2023-05-08T04:23:23;102948.91;;;5.90;69.97
48606;BME280;8482;54.396;18.590;2023-05-08T04:25:51;102961.88;;;5.98;70.09
48606;BME280;8482;54.396;18.590;2023-05-08T04:28:18;102955.59;;;6.05;69.89
48606;BME280;8482;54.396;18.590;2023-05-08T04:30:45;102962.44;;;6.12;70.27
48606;BME280;8482;54.396;18.590;2023-05-08T04:33:12;102969.28;;;6.20;69.59
48606;BME280;8482;54.396;18.590;2023-05-08T04:35:39;102967.38;;;6.26;69.89
48606;BME280;8482;54.396;18.590;2023-05-08T04:38:05;102972.50;;;6.33;69.23
48606;BME280;8482;54.396;18.590;2023-05-08T04:40:31;102971.41;;;6.40;69.41
48606;BME280;8482;54.396;18.590;2023-05-08T04:42:57;102966.06;;;6.43;69.86
48606;BME280;8482;54.396;18.590;2023-05-08T04:45:23;102971.09;;;6.54;69.23
48606;BME280;8482;54.396;18.590;2023-05-08T04:47:49;102974.44;;;6.61;68.93
48606;BME280;8482;54.396;18.590;2023-05-08T04:50:15;102967.22;;;6.66;68.65
48606;BME280;8482;54.396;18.590;2023-05-08T04:52:41;102976.69;;;6.74;69.24
48606;BME280;8482;54.396;18.590;2023-05-08T04:55:08;102979.09;;;6.82;69.56
48606;BME280;8482;54.396;18.590;2023-05-08T04:57:33;102971.00;;;6.88;69.15
48606;BME280;8482;54.396;18.590;2023-05-08T04:59:59;102981.34;;;6.96;68.82
48606;BME280;8482;54.396;18.590;2023-05-08T05:02:25;102979.38;;;7.04;68.96
48606;BME280;8482;54.396;18.590;2023-05-08T05:04:51;102980.06;;;7.11;68.31
48606;BME280;8482;54.396;18.590;2023-05-08T05:07:17;102973.69;;;7.18;68.89
48606;BME280;8482;54.396;18.590;2023-05-08T05:09:43;102976.09;;;7.28;67.75
48606;BME280;8482;54.396;18.590;2023-05-08T05:12:09;102978.47;;;7.35;68.03
48606;BME280;8482;54.396;18.590;2023-05-08T05:14:35;102991.44;;;7.45;67.92
48606;BME280;8482;54.396;18.590;2023-05-08T05:17:01;102984.94;;;7.55;67.30
48606;BME280;8482;54.396;18.590;2023-05-08T05:19:26;102990.84;;;7.63;66.72
48606;BME280;8482;54.396;18.590;2023-05-08T05:21:52;102980.03;;;7.73;65.87
48606;BME280;8482;54.396;18.590;2023-05-08T05:24:18;102979.78;;;7.80;65.18
48606;BME280;8482;54.396;18.590;2023-05-08T05:26:44;102980.47;;;7.87;65.31
48606;BME280;8482;54.396;18.590;2023-05-08T05:29:10;102990.63;;;8.00;65.08
48606;BME280;8482;54.396;18.590;2023-05-08T05:31:36;102993.81;;;8.09;64.96
48606;BME280;8482;54.396;18.590;2023-05-08T05:34:02;102991.81;;;8.18;64.41
48606;BME280;8482;54.396;18.590;2023-05-08T05:36:28;102989.72;;;8.27;63.82
48606;BME280;8482;54.396;18.590;2023-05-08T05:38:54;102989.41;;;8.37;63.68
48606;BME280;8482;54.396;18.590;2023-05-08T05:41:19;102994.34;;;8.48;63.15
48606;BME280;8482;54.396;18.590;2023-05-08T05:43:46;102990.50;;;8.58;62.47
48606;BME280;8482;54.396;18.590;2023-05-08T05:46:12;102994.59;;;8.67;62.14
48606;BME280;8482;54.396;18.590;2023-05-08T05:48:38;102990.72;;;8.77;61.57
48606;BME280;8482;54.396;18.590;2023-05-08T05:51:04;102995.75;;;8.85;60.63
48606;BME280;8482;54.396;18.590;2023-05-08T05:53:30;103001.69;;;8.92;60.01
48606;BME280;8482;54.396;18.590;2023-05-08T05:55:56;103001.34;;;9.01;59.14
48606;BME280;8482;54.396;18.590;2023-05-08T05:58:22;102998.34;;;9.10;59.00
48606;BME280;8482;54.396;18.590;2023-05-08T06:00:48;103002.44;;;9.19;58.64
48606;BME280;8482;54.396;18.590;2023-05-08T06:03:13;102994.22;;;9.27;58.54
48606;BME280;8482;54.396;18.590;2023-05-08T06:05:40;102992.13;;;9.35;58.60
48606;BME280;8482;54.396;18.590;2023-05-08T06:08:06;102997.03;;;9.46;58.30
48606;BME280;8482;54.396;18.590;2023-05-08T06:10:33;103004.69;;;9.54;57.99
48606;BME280;8482;54.396;18.590;2023-05-08T06:12:59;102997.28;;;9.62;57.74
48606;BME280;8482;54.396;18.590;2023-05-08T06:15:25;102994.34;;;9.70;57.74
48606;BME280;8482;54.396;18.590;2023-05-08T06:17:51;103000.16;;;9.79;57.28
48606;BME280;8482;54.396;18.590;2023-05-08T06:20:17;102998.97;;;9.87;57.38
48606;BME280;8482;54.396;18.590;2023-05-08T06:22:43;102995.09;;;9.95;57.51
48606;BME280;8482;54.396;18.590;2023-05-08T06:25:09;102994.75;;;10.05;56.89
48606;BME280;8482;54.396;18.590;2023-05-08T06:27:35;102997.06;;;10.12;56.58
48606;BME280;8482;54.396;18.590;2023-05-08T06:30:02;102998.44;;;10.23;56.42
48606;BME280;8482;54.396;18.590;2023-05-08T06:32:29;102999.88;;;10.30;56.24
48606;BME280;8482;54.396;18.590;2023-05-08T06:34:55;102988.97;;;10.38;55.73
48606;BME280;8482;54.396;18.590;2023-05-08T06:37:21;102996.53;;;10.47;55.73
48606;BME280;8482;54.396;18.590;2023-05-08T06:39:47;102986.47;;;10.55;55.40
48606;BME280;8482;54.396;18.590;2023-05-08T06:42:13;102996.69;;;10.65;55.25
48606;BME280;8482;54.396;18.590;2023-05-08T06:44:39;102988.47;;;10.71;55.01
48606;BME280;8482;54.396;18.590;2023-05-08T06:47:05;102991.56;;;10.81;54.84
48606;BME280;8482;54.396;18.590;2023-05-08T06:49:31;102994.75;;;10.89;54.66
48606;BME280;8482;54.396;18.590;2023-05-08T06:51:57;102994.25;;;11.00;54.77
48606;BME280;8482;54.396;18.590;2023-05-08T06:54:23;102996.66;;;11.06;54.34
48606;BME280;8482;54.396;18.590;2023-05-08T06:56:49;102985.56;;;11.17;54.45
48606;BME280;8482;54.396;18.590;2023-05-08T06:59:14;102990.31;;;11.29;54.31
48606;BME280;8482;54.396;18.590;2023-05-08T07:01:40;102990.66;;;11.41;54.05
48606;BME280;8482;54.396;18.590;2023-05-08T07:04:06;102997.25;;;11.51;54.02
48606;BME280;8482;54.396;18.590;2023-05-08T07:06:32;102980.25;;;11.55;54.23
48606;BME280;8482;54.396;18.590;2023-05-08T07:08:58;102994.72;;;11.67;54.03
48606;BME280;8482;54.396;18.590;2023-05-08T07:11:30;102993.28;;;11.79;53.75
48606;BME280;8482;54.396;18.590;2023-05-08T07:13:56;102993.78;;;11.87;54.27
48606;BME280;8482;54.396;18.590;2023-05-08T07:16:22;102990.69;;;11.96;53.88
48606;BME280;8482;54.396;18.590;2023-05-08T07:18:48;102984.00;;;12.07;53.63
48606;BME280;8482;54.396;18.590;2023-05-08T07:21:13;102989.72;;;12.17;53.16
48606;BME280;8482;54.396;18.590;2023-05-08T07:23:42;102995.44;;;12.26;53.31
48606;BME280;8482;54.396;18.590;2023-05-08T07:26:08;102991.44;;;12.35;52.64
48606;BME280;8482;54.396;18.590;2023-05-08T07:28:33;102996.22;;;12.46;52.69
48606;BME280;8482;54.396;18.590;2023-05-08T07:31:04;102986.03;;;12.54;52.82
48606;BME280;8482;54.396;18.590;2023-05-08T07:33:32;102996.13;;;12.65;52.61
48606;BME280;8482;54.396;18.590;2023-05-08T07:35:59;102996.59;;;12.73;52.72
48606;BME280;8482;54.396;18.590;2023-05-08T07:38:25;102983.75;;;12.82;52.69
48606;BME280;8482;54.396;18.590;2023-05-08T07:40:51;102989.44;;;12.92;52.02
48606;BME280;8482;54.396;18.590;2023-05-08T07:43:22;102985.50;;;12.99;52.12
48606;BME280;8482;54.396;18.590;2023-05-08T07:45:48;102989.31;;;13.11;51.70
48606;BME280;8482;54.396;18.590;2023-05-08T07:48:13;102997.66;;;13.21;51.38
48606;BME280;8482;54.396;18.590;2023-05-08T07:50:39;102985.56;;;13.31;51.48
48606;BME280;8482;54.396;18.590;2023-05-08T07:53:05;102984.22;;;13.40;50.82
48606;BME280;8482;54.396;18.590;2023-05-08T07:55:31;102986.28;;;13.51;50.74
48606;BME280;8482;54.396;18.590;2023-05-08T07:57:57;102987.50;;;13.61;50.92
48606;BME280;8482;54.396;18.590;2023-05-08T08:00:23;102980.19;;;13.64;50.62
48606;BME280;8482;54.396;18.590;2023-05-08T08:02:52;102985.94;;;13.73;50.44
48606;BME280;8482;54.396;18.590;2023-05-08T08:05:18;102986.63;;;13.76;50.32
48606;BME280;8482;54.396;18.590;2023-05-08T08:07:44;102993.53;;;13.81;50.20
48606;BME280;8482;54.396;18.590;2023-05-08T08:10:09;102987.75;;;13.88;50.33
48606;BME280;8482;54.396;18.590;2023-05-08T08:12:36;102991.00;;;13.93;50.26
48606;BME280;8482;54.396;18.590;2023-05-08T08:15:02;102989.78;;;13.99;49.66
48606;BME280;8482;54.396;18.590;2023-05-08T08:17:28;102993.91;;;14.05;49.54
48606;BME280;8482;54.396;18.590;2023-05-08T08:19:54;102991.06;;;14.08;49.50
48606;BME280;8482;54.396;18.590;2023-05-08T08:22:19;102991.47;;;14.16;49.08
48606;BME280;8482;54.396;18.590;2023-05-08T08:24:45;102999.97;;;14.23;48.90
48606;BME280;8482;54.396;18.590;2023-05-08T08:27:11;102997.72;;;14.31;48.59
48606;BME280;8482;54.396;18.590;2023-05-08T08:29:37;102990.97;;;14.40;48.69
48606;BME280;8482;54.396;18.590;2023-05-08T08:32:03;102985.09;;;14.49;47.40
48606;BME280;8482;54.396;18.590;2023-05-08T08:34:32;102995.19;;;14.59;46.56
48606;BME280;8482;54.396;18.590;2023-05-08T08:36:58;102993.13;;;14.64;46.46
48606;BME280;8482;54.396;18.590;2023-05-08T08:39:23;102993.66;;;14.70;44.86
48606;BME280;8482;54.396;18.590;2023-05-08T08:41:49;102997.09;;;14.73;44.73
48606;BME280;8482;54.396;18.590;2023-05-08T08:44:15;102997.56;;;14.79;44.83
48606;BME280;8482;54.396;18.590;2023-05-08T08:46:50;102993.66;;;14.85;45.23
48606;BME280;8482;54.396;18.590;2023-05-08T08:49:24;102993.38;;;14.90;44.10
48606;BME280;8482;54.396;18.590;2023-05-08T08:52:01;102990.41;;;14.94;43.66
48606;BME280;8482;54.396;18.590;2023-05-08T08:54:29;102991.75;;;15.01;43.51
48606;BME280;8482;54.396;18.590;2023-05-08T08:57:04;102988.69;;;15.08;41.55
48606;BME280;8482;54.396;18.590;2023-05-08T08:59:33;102990.41;;;15.09;41.71
48606;BME280;8482;54.396;18.590;2023-05-08T09:02:08;102994.50;;;15.14;41.97
48606;BME280;8482;54.396;18.590;2023-05-08T09:04:36;102990.59;;;15.20;40.46
48606;BME280;8482;54.396;18.590;2023-05-08T09:07:04;102986.97;;;15.21;40.29
48606;BME280;8482;54.396;18.590;2023-05-08T09:09:32;102982.28;;;15.25;40.27
48606;BME280;8482;54.396;18.590;2023-05-08T09:12:02;102987.31;;;15.29;39.73
48606;BME280;8482;54.396;18.590;2023-05-08T09:14:28;102987.72;;;15.38;38.57
48606;BME280;8482;54.396;18.590;2023-05-08T09:16:54;102990.75;;;15.46;37.72
48606;BME280;8482;54.396;18.590;2023-05-08T09:19:21;102985.03;;;15.52;37.17
48606;BME280;8482;54.396;18.590;2023-05-08T09:21:48;102989.88;;;15.60;36.66
48606;BME280;8482;54.396;18.590;2023-05-08T09:24:14;102990.41;;;15.65;36.45
48606;BME280;8482;54.396;18.590;2023-05-08T09:26:41;102983.72;;;15.72;35.66
48606;BME280;8482;54.396;18.590;2023-05-08T09:29:15;102990.38;;;15.79;35.06
48606;BME280;8482;54.396;18.590;2023-05-08T09:31:50;102983.78;;;15.85;34.56
48606;BME280;8482;54.396;18.590;2023-05-08T09:34:28;102983.09;;;15.96;34.64
48606;BME280;8482;54.396;18.590;2023-05-08T09:37:11;102979.03;;;16.03;35.25
48606;BME280;8482;54.396;18.590;2023-05-08T09:39:38;102983.88;;;16.11;35.29
48606;BME280;8482;54.396;18.590;2023-05-08T09:42:06;102979.72;;;16.20;35.43
48606;BME280;8482;54.396;18.590;2023-05-08T09:44:46;102977.16;;;16.31;35.37
48606;BME280;8482;54.396;18.590;2023-05-08T09:47:14;102974.16;;;16.36;33.99
48606;BME280;8482;54.396;18.590;2023-05-08T09:52:30;102976.00;;;16.35;34.57
48606;BME280;8482;54.396;18.590;2023-05-08T09:57:31;102973.31;;;16.35;35.29
48606;BME280;8482;54.396;18.590;2023-05-08T10:00:11;102974.72;;;16.41;35.60
48606;BME280;8482;54.396;18.590;2023-05-08T10:02:53;102964.00;;;16.41;36.10
48606;BME280;8482;54.396;18.590;2023-05-08T10:05:29;102961.00;;;16.46;36.63
48606;BME280;8482;54.396;18.590;2023-05-08T10:07:57;102971.19;;;16.53;36.52
48606;BME280;8482;54.396;18.590;2023-05-08T10:10:26;102964.56;;;16.59;36.00
48606;BME280;8482;54.396;18.590;2023-05-08T10:12:54;102965.75;;;16.68;35.74
48606;BME280;8482;54.396;18.590;2023-05-08T10:15:42;102963.16;;;16.79;34.34
48606;BME280;8482;54.396;18.590;2023-05-08T10:18:09;102966.38;;;16.84;33.81
48606;BME280;8482;54.396;18.590;2023-05-08T10:20:41;102966.69;;;16.93;33.48
48606;BME280;8482;54.396;18.590;2023-05-08T10:23:14;102964.75;;;17.08;31.56
48606;BME280;8482;54.396;18.590;2023-05-08T10:25:45;102966.03;;;17.15;30.05
48606;BME280;8482;54.396;18.590;2023-05-08T10:30:49;102960.69;;;17.15;31.20
48606;BME280;8482;54.396;18.590;2023-05-08T10:33:20;102962.19;;;17.19;30.88
48606;BME280;8482;54.396;18.590;2023-05-08T10:35:48;102962.91;;;17.21;30.81
48606;BME280;8482;54.396;18.590;2023-05-08T10:38:16;102959.78;;;17.27;30.99
48606;BME280;8482;54.396;18.590;2023-05-08T10:40:42;102957.19;;;17.39;30.80
48606;BME280;8482;54.396;18.590;2023-05-08T10:43:08;102952.97;;;17.48;30.47
48606;BME280;8482;54.396;18.590;2023-05-08T10:45:36;102953.25;;;17.56;29.01
48606;BME280;8482;54.396;18.590;2023-05-08T10:48:10;102951.31;;;17.58;29.10
48606;BME280;8482;54.396;18.590;2023-05-08T10:51:02;102946.81;;;17.58;29.11
48606;BME280;8482;54.396;18.590;2023-05-08T10:53:49;102953.91;;;17.59;29.34
48606;BME280;8482;54.396;18.590;2023-05-08T10:56:15;102944.84;;;17.60;29.21
48606;BME280;8482;54.396;18.590;2023-05-08T10:58:41;102951.50;;;17.68;28.68
48606;BME280;8482;54.396;18.590;2023-05-08T11:03:40;102937.72;;;17.72;29.24
48606;BME280;8482;54.396;18.590;2023-05-08T11:06:07;102939.09;;;17.78;28.88
48606;BME280;8482;54.396;18.590;2023-05-08T11:08:51;102938.50;;;17.86;28.54
48606;BME280;8482;54.396;18.590;2023-05-08T11:11:31;102929.47;;;17.87;28.87
48606;BME280;8482;54.396;18.590;2023-05-08T11:19:27;102932.19;;;18.11;28.75
48606;BME280;8482;54.396;18.590;2023-05-08T11:24:52;102916.91;;;18.23;28.05
48606;BME280;8482;54.396;18.590;2023-05-08T11:35:48;102919.03;;;18.42;27.01
48606;BME280;8482;54.396;18.590;2023-05-08T11:38:36;102917.09;;;18.44;27.47
48606;BME280;8482;54.396;18.590;2023-05-08T11:41:07;102915.50;;;18.53;27.78
48606;BME280;8482;54.396;18.590;2023-05-08T11:46:13;102919.66;;;18.68;27.82
48606;BME280;8482;54.396;18.590;2023-05-08T11:48:40;102915.75;;;18.73;27.09
48606;BME280;8482;54.396;18.590;2023-05-08T11:51:06;102909.28;;;18.75;26.85
48606;BME280;8482;54.396;18.590;2023-05-08T11:53:33;102908.19;;;18.78;26.78
48606;BME280;8482;54.396;18.590;2023-05-08T11:56:01;102910.25;;;18.86;25.90
48606;BME280;8482;54.396;18.590;2023-05-08T11:58:28;102917.09;;;18.90;26.39
48606;BME280;8482;54.396;18.590;2023-05-08T12:00:54;102913.56;;;19.01;26.44
48606;BME280;8482;54.396;18.590;2023-05-08T12:03:22;102906.59;;;19.09;26.33
48606;BME280;8482;54.396;18.590;2023-05-08T12:05:54;102913.06;;;19.18;25.80
48606;BME280;8482;54.396;18.590;2023-05-08T12:08:21;102907.53;;;19.20;25.21
48606;BME280;8482;54.396;18.590;2023-05-08T12:10:52;102911.22;;;19.19;25.14
48606;BME280;8482;54.396;18.590;2023-05-08T12:13:27;102909.13;;;19.22;24.76
48606;BME280;8482;54.396;18.590;2023-05-08T12:15:56;102909.25;;;19.21;25.12
48606;BME280;8482;54.396;18.590;2023-05-08T12:18:25;102908.28;;;19.22;25.54
48606;BME280;8482;54.396;18.590;2023-05-08T12:21:00;102911.06;;;19.32;26.01
48606;BME280;8482;54.396;18.590;2023-05-08T12:23:29;102907.50;;;19.42;26.28
48606;BME280;8482;54.396;18.590;2023-05-08T12:25:59;102903.97;;;19.63;25.01
48606;BME280;8482;54.396;18.590;2023-05-08T12:28:25;102904.66;;;19.76;24.93
48606;BME280;8482;54.396;18.590;2023-05-08T12:30:52;102905.59;;;19.87;24.61
48606;BME280;8482;54.396;18.590;2023-05-08T12:33:19;102907.66;;;19.95;23.83
48606;BME280;8482;54.396;18.590;2023-05-08T12:35:45;102897.88;;;19.94;24.18
48606;BME280;8482;54.396;18.590;2023-05-08T12:38:11;102901.03;;;19.99;24.19
48606;BME280;8482;54.396;18.590;2023-05-08T12:40:46;102896.56;;;20.09;24.55
48606;BME280;8482;54.396;18.590;2023-05-08T12:43:17;102898.19;;;20.21;23.59
48606;BME280;8482;54.396;18.590;2023-05-08T12:45:43;102896.69;;;20.29;24.04
48606;BME280;8482;54.396;18.590;2023-05-08T12:48:13;102890.34;;;20.40;24.06
48606;BME280;8482;54.396;18.590;2023-05-08T12:50:45;102888.09;;;20.45;23.81
48606;BME280;8482;54.396;18.590;2023-05-08T12:53:14;102888.41;;;20.51;23.99
48606;BME280;8482;54.396;18.590;2023-05-08T12:55:53;102889.47;;;20.60;23.14
48606;BME280;8482;54.396;18.590;2023-05-08T12:58:24;102890.03;;;20.64;23.55
48606;BME280;8482;54.396;18.590;2023-05-08T13:00:52;102894.91;;;20.70;23.93
48606;BME280;8482;54.396;18.590;2023-05-08T13:03:27;102891.25;;;20.81;23.63
48606;BME280;8482;54.396;18.590;2023-05-08T13:05:56;102887.16;;;20.87;23.51
48606;BME280;8482;54.396;18.590;2023-05-08T13:08:54;102882.06;;;20.93;24.05
48606;BME280;8482;54.396;18.590;2023-05-08T13:11:30;102885.34;;;21.07;23.85
48606;BME280;8482;54.396;18.590;2023-05-08T13:13:57;102883.41;;;21.19;23.68
48606;BME280;8482;54.396;18.590;2023-05-08T13:16:23;102878.44;;;21.34;22.70
48606;BME280;8482;54.396;18.590;2023-05-08T13:18:49;102877.00;;;21.39;23.21
48606;BME280;8482;54.396;18.590;2023-05-08T13:21:15;102875.75;;;21.43;23.17
48606;BME280;8482;54.396;18.590;2023-05-08T13:23:40;102880.88;;;21.47;23.51
48606;BME280;8482;54.396;18.590;2023-05-08T13:26:08;102878.16;;;21.47;23.41
48606;BME280;8482;54.396;18.590;2023-05-08T13:28:33;102877.59;;;21.53;23.25
48606;BME280;8482;54.396;18.590;2023-05-08T13:30:59;102877.03;;;21.59;23.17
48606;BME280;8482;54.396;18.590;2023-05-08T13:33:25;102877.34;;;21.66;23.43
48606;BME280;8482;54.396;18.590;2023-05-08T13:35:51;102874.66;;;21.76;22.82
48606;BME280;8482;54.396;18.590;2023-05-08T13:38:18;102873.22;;;21.81;22.81
48606;BME280;8482;54.396;18.590;2023-05-08T13:40:44;102872.63;;;21.87;23.10
48606;BME280;8482;54.396;18.590;2023-05-08T13:43:10;102864.22;;;22.00;22.75
48606;BME280;8482;54.396;18.590;2023-05-08T13:45:36;102869.44;;;22.12;22.63
48606;BME280;8482;54.396;18.590;2023-05-08T13:48:01;102868.72;;;22.19;22.78
48606;BME280;8482;54.396;18.590;2023-05-08T13:50:27;102869.53;;;22.30;22.21
48606;BME280;8482;54.396;18.590;2023-05-08T13:52:53;102868.25;;;22.34;22.85
48606;BME280;8482;54.396;18.590;2023-05-08T13:55:19;102861.84;;;22.35;22.24
48606;BME280;8482;54.396;18.590;2023-05-08T13:57:47;102861.84;;;22.35;22.72
48606;BME280;8482;54.396;18.590;2023-05-08T14:00:14;102861.53;;;22.38;23.32